sensor_id;sensor_type;location;lat;lon;timestamp;pressure;altitude;pressure_sealevel;temperature;humidity
60019;BME280;45870;42.528;26.740;2023-02-11T00:01:33;101579.34;;;-0.29;37.72
60019;BME280;45870;42.528;26.740;2023-02-11T00:04:00;101647.88;;;-0.01;38.20
60019;BME280;45870;42.528;26.740;2023-02-11T00:06:27;101584.38;;;-0.83;38.77
60019;BME280;45870;42.528;26.740;2023-02-11T00:08:54;101633.84;;;-0.71;39.42
60019;BME280;45870;42.528;26.740;2023-02-11T00:11:22;101632.50;;;-0.31;38.67
60019;BME280;45870;42.528;26.740;2023-02-11T00:13:50;101646.53;;;-0.18;38.03
60019;BME280;45870;42.528;26.740;2023-02-11T00:16:19;101638.72;;;0.03;37.61
60019;BME280;45870;42.528;26.740;2023-02-11T00:18:45;101640.16;;;0.07;37.44
60019;BME280;45870;42.528;26.740;2023-02-11T00:21:16;101637.03;;;0.02;37.36
60019;BME280;45870;42.528;26.740;2023-02-11T00:23:43;101624.22;;;-0.15;37.37
60019;BME280;45870;42.528;26.740;2023-02-11T00:26:17;101631.22;;;-0.14;37.64
60019;BME280;45870;42.528;26.740;2023-02-11T00:28:44;101583.78;;;-0.30;37.62
60019;BME280;45870;42.528;26.740;2023-02-11T00:31:11;101627.84;;;-0.05;37.71
60019;BME280;45870;42.528;26.740;2023-02-11T00:33:37;101620.41;;;-0.35;38.05
60019;BME280;45870;42.528;26.740;2023-02-11T00:36:09;101616.38;;;-0.17;37.77
60019;BME280;45870;42.528;26.740;2023-02-11T00:38:36;101611.75;;;-0.37;37.60
60019;BME280;45870;42.528;26.740;2023-02-11T00:41:02;101619.03;;;-0.63;38.09
60019;BME280;45870;42.528;26.740;2023-02-11T00:43:27;101621.94;;;-0.55;38.00
60019;BME280;45870;42.528;26.740;2023-02-11T00:45:53;101622.72;;;-0.30;37.58
60019;BME280;45870;42.528;26.740;2023-02-11T00:48:19;101615.13;;;-0.35;37.84
60019;BME280;45870;42.528;26.740;2023-02-11T00:50:44;101609.06;;;-0.48;37.81
60019;BME280;45870;42.528;26.740;2023-02-11T00:53:10;101611.53;;;-0.23;37.97
60019;BME280;45870;42.528;26.740;2023-02-11T00:55:36;101609.22;;;-0.27;38.49
60019;BME280;45870;42.528;26.740;2023-02-11T00:58:01;101609.50;;;-0.19;38.31
60019;BME280;45870;42.528;26.740;2023-02-11T01:00:27;101613.94;;;-0.20;38.30
60019;BME280;45870;42.528;26.740;2023-02-11T01:02:53;101608.78;;;-0.10;38.06
60019;BME280;45870;42.528;26.740;2023-02-11T01:05:19;101602.47;;;-0.31;38.75
60019;BME280;45870;42.528;26.740;2023-02-11T01:07:45;101601.91;;;-0.59;38.89
60019;BME280;45870;42.528;26.740;2023-02-11T01:10:11;101604.78;;;-0.16;38.43
60019;BME280;45870;42.528;26.740;2023-02-11T01:12:37;101602.75;;;-0.01;37.99
60019;BME280;45870;42.528;26.740;2023-02-11T01:15:06;101598.75;;;-0.75;39.58
60019;BME280;45870;42.528;26.740;2023-02-11T01:17:33;101611.56;;;-0.92;39.95
60019;BME280;45870;42.528;26.740;2023-02-11T01:20:05;101583.28;;;-0.35;38.14
60019;BME280;45870;42.528;26.740;2023-02-11T01:22:32;101523.72;;;-0.53;37.84
60019;BME280;45870;42.528;26.740;2023-02-11T01:25:05;101603.44;;;-0.32;37.41
60019;BME280;45870;42.528;26.740;2023-02-11T01:27:31;101599.38;;;-0.14;38.13
60019;BME280;45870;42.528;26.740;2023-02-11T01:29:57;101597.56;;;-0.03;38.21
60019;BME280;45870;42.528;26.740;2023-02-11T01:32:22;101595.63;;;-0.12;38.09
60019;BME280;45870;42.528;26.740;2023-02-11T01:34:48;101596.63;;;0.10;37.70
60019;BME280;45870;42.528;26.740;2023-02-11T01:37:14;101589.81;;;-0.39;38.55
60019;BME280;45870;42.528;26.740;2023-02-11T01:39:39;101592.84;;;-0.10;37.96
60019;BME280;45870;42.528;26.740;2023-02-11T01:42:05;101588.31;;;-0.54;37.55
60019;BME280;45870;42.528;26.740;2023-02-11T01:44:34;101580.75;;;-0.36;37.60
60019;BME280;45870;42.528;26.740;2023-02-11T01:47:01;101586.75;;;-0.45;37.62
60019;BME280;45870;42.528;26.740;2023-02-11T01:49:38;101335.19;;;-2.21;38.61
60019;BME280;45870;42.528;26.740;2023-02-11T01:54:54;101588.13;;;-0.40;38.00
60019;BME280;45870;42.528;26.740;2023-02-11T01:57:44;101577.59;;;-0.87;38.68
60019;BME280;45870;42.528;26.740;2023-02-11T02:00:17;101583.25;;;-0.57;38.69
60019;BME280;45870;42.528;26.740;2023-02-11T02:10:42;101572.91;;;-0.38;38.18
60019;BME280;45870;42.528;26.740;2023-02-11T02:13:09;101571.09;;;-0.37;38.03
60019;BME280;45870;42.528;26.740;2023-02-11T02:15:37;101573.69;;;-0.25;37.87
60019;BME280;45870;42.528;26.740;2023-02-11T02:18:44;101567.75;;;-0.39;38.24
60019;BME280;45870;42.528;26.740;2023-02-11T02:27:03;101573.63;;;-0.47;38.98
60019;BME280;45870;42.528;26.740;2023-02-11T02:35:31;101570.41;;;-0.17;38.31
60019;BME280;45870;42.528;26.740;2023-02-11T02:38:22;101574.88;;;-0.18;38.12
60019;BME280;45870;42.528;26.740;2023-02-11T02:40:57;101565.84;;;-0.04;38.10
60019;BME280;45870;42.528;26.740;2023-02-11T02:43:25;101570.19;;;-0.14;37.84
60019;BME280;45870;42.528;26.740;2023-02-11T02:45:52;101567.28;;;-0.11;37.97
60019;BME280;45870;42.528;26.740;2023-02-11T02:48:31;101565.59;;;-0.01;37.75
60019;BME280;45870;42.528;26.740;2023-02-11T02:53:46;101503.19;;;-0.62;37.76
60019;BME280;45870;42.528;26.740;2023-02-11T02:56:45;101571.25;;;-0.17;37.54
60019;BME280;45870;42.528;26.740;2023-02-11T03:02:02;101578.16;;;-0.95;38.07
60019;BME280;45870;42.528;26.740;2023-02-11T03:05:05;101577.09;;;-0.58;37.45
60019;BME280;45870;42.528;26.740;2023-02-11T03:07:56;101566.00;;;-0.97;37.42
60019;BME280;45870;42.528;26.740;2023-02-11T03:10:37;101573.00;;;-1.20;37.66
60019;BME280;45870;42.528;26.740;2023-02-11T03:13:04;101571.69;;;-1.38;37.43
60019;BME280;45870;42.528;26.740;2023-02-11T03:15:37;101575.88;;;-1.23;37.94
60019;BME280;45870;42.528;26.740;2023-02-11T03:18:05;101576.53;;;-1.09;37.68
60019;BME280;45870;42.528;26.740;2023-02-11T03:20:35;101572.47;;;-1.02;38.03
60019;BME280;45870;42.528;26.740;2023-02-11T03:23:15;101568.97;;;-1.02;37.25
60019;BME280;45870;42.528;26.740;2023-02-11T03:25:49;101562.66;;;-1.23;37.60
60019;BME280;45870;42.528;26.740;2023-02-11T03:28:29;101572.78;;;-1.17;37.28
60019;BME280;45870;42.528;26.740;2023-02-11T03:33:45;101524.06;;;-2.24;38.91
60019;BME280;45870;42.528;26.740;2023-02-11T03:36:21;101552.53;;;-1.66;37.64
60019;BME280;45870;42.528;26.740;2023-02-11T03:38:50;101570.31;;;-1.68;37.39
60019;BME280;45870;42.528;26.740;2023-02-11T03:41:20;101556.34;;;-1.82;37.08
60019;BME280;45870;42.528;26.740;2023-02-11T03:43:51;101570.44;;;-1.82;37.30
60019;BME280;45870;42.528;26.740;2023-02-11T03:46:21;101567.69;;;-1.80;37.68
60019;BME280;45870;42.528;26.740;2023-02-11T03:48:55;101475.50;;;-2.35;37.58
60019;BME280;45870;42.528;26.740;2023-02-11T03:51:24;101557.28;;;-1.71;37.30
60019;BME280;45870;42.528;26.740;2023-02-11T03:53:54;101562.13;;;-1.65;37.39
60019;BME280;45870;42.528;26.740;2023-02-11T03:56:24;101542.22;;;-1.94;37.92
60019;BME280;45870;42.528;26.740;2023-02-11T03:58:51;101556.94;;;-2.03;38.73
60019;BME280;45870;42.528;26.740;2023-02-11T04:01:17;101546.41;;;-1.79;38.08
60019;BME280;45870;42.528;26.740;2023-02-11T04:03:42;101566.09;;;-1.70;36.88
60019;BME280;45870;42.528;26.740;2023-02-11T04:06:08;101561.59;;;-2.06;37.93
60019;BME280;45870;42.528;26.740;2023-02-11T04:08:34;101566.44;;;-1.87;37.70
60019;BME280;45870;42.528;26.740;2023-02-11T04:10:59;101572.84;;;-2.15;38.03
60019;BME280;45870;42.528;26.740;2023-02-11T04:13:25;101568.91;;;-2.35;38.72
60019;BME280;45870;42.528;26.740;2023-02-11T04:15:51;101576.28;;;-2.65;40.32
60019;BME280;45870;42.528;26.740;2023-02-11T04:18:16;101575.28;;;-1.76;37.96
60019;BME280;45870;42.528;26.740;2023-02-11T04:20:42;101569.13;;;-1.64;39.15
60019;BME280;45870;42.528;26.740;2023-02-11T04:23:08;101565.88;;;-1.43;38.85
60019;BME280;45870;42.528;26.740;2023-02-11T04:25:34;101563.38;;;-1.21;38.62
60019;BME280;45870;42.528;26.740;2023-02-11T04:28:00;101567.19;;;-1.25;38.22
60019;BME280;45870;42.528;26.740;2023-02-11T04:30:26;101570.47;;;-1.22;39.11
60019;BME280;45870;42.528;26.740;2023-02-11T04:32:52;101458.34;;;-1.81;38.12
60019;BME280;45870;42.528;26.740;2023-02-11T04:35:19;101573.97;;;-1.21;38.56
60019;BME280;45870;42.528;26.740;2023-02-11T04:37:44;101429.63;;;-1.98;38.04
60019;BME280;45870;42.528;26.740;2023-02-11T04:40:10;101565.75;;;-0.94;37.72
60019;BME280;45870;42.528;26.740;2023-02-11T04:42:36;101567.69;;;-0.96;37.20
60019;BME280;45870;42.528;26.740;2023-02-11T04:45:02;101564.09;;;-1.19;38.12
60019;BME280;45870;42.528;26.740;2023-02-11T04:47:27;101554.53;;;-1.69;39.05
60019;BME280;45870;42.528;26.740;2023-02-11T04:49:53;101560.81;;;-1.46;38.58
60019;BME280;45870;42.528;26.740;2023-02-11T04:52:18;101480.59;;;-1.83;37.74
60019;BME280;45870;42.528;26.740;2023-02-11T04:54:44;101551.59;;;-1.90;39.10
60019;BME280;45870;42.528;26.740;2023-02-11T04:57:10;101520.91;;;-2.41;39.58
60019;BME280;45870;42.528;26.740;2023-02-11T04:59:35;101549.81;;;-1.77;38.53
60019;BME280;45870;42.528;26.740;2023-02-11T05:02:01;101553.44;;;-1.90;39.33
60019;BME280;45870;42.528;26.740;2023-02-11T05:04:28;101554.88;;;-1.74;39.05
60019;BME280;45870;42.528;26.740;2023-02-11T05:06:54;101550.81;;;-1.67;39.58
60019;BME280;45870;42.528;26.740;2023-02-11T05:09:19;101518.03;;;-1.77;39.10
60019;BME280;45870;42.528;26.740;2023-02-11T05:11:45;101545.16;;;-1.86;40.07
60019;BME280;45870;42.528;26.740;2023-02-11T05:14:11;101554.47;;;-1.20;38.78
60019;BME280;45870;42.528;26.740;2023-02-11T05:16:36;101498.56;;;-1.52;39.21
60019;BME280;45870;42.528;26.740;2023-02-11T05:19:02;101531.56;;;-1.21;38.75
60019;BME280;45870;42.528;26.740;2023-02-11T05:21:28;101417.78;;;-2.05;39.42
60019;BME280;45870;42.528;26.740;2023-02-11T05:23:54;101537.94;;;-1.47;39.38
60019;BME280;45870;42.528;26.740;2023-02-11T05:26:19;101530.19;;;-1.74;40.70
60019;BME280;45870;42.528;26.740;2023-02-11T05:28:45;101538.81;;;-1.12;39.14
60019;BME280;45870;42.528;26.740;2023-02-11T05:31:11;101538.84;;;-1.36;39.90
60019;BME280;45870;42.528;26.740;2023-02-11T05:33:40;101534.59;;;-0.80;39.54
60019;BME280;45870;42.528;26.740;2023-02-11T05:36:08;101541.66;;;-0.57;39.24
60019;BME280;45870;42.528;26.740;2023-02-11T05:38:35;101538.44;;;-0.16;38.47
60019;BME280;45870;42.528;26.740;2023-02-11T05:41:02;101543.78;;;0.61;38.04
60019;BME280;45870;42.528;26.740;2023-02-11T05:43:28;101539.00;;;0.86;37.74
60019;BME280;45870;42.528;26.740;2023-02-11T05:45:54;101505.25;;;0.98;37.83
60019;BME280;45870;42.528;26.740;2023-02-11T05:48:19;101547.53;;;1.01;37.25
60019;BME280;45870;42.528;26.740;2023-02-11T05:50:45;101538.63;;;0.91;37.59
60019;BME280;45870;42.528;26.740;2023-02-11T05:53:13;101545.91;;;1.72;36.85
60019;BME280;45870;42.528;26.740;2023-02-11T05:55:39;101548.06;;;1.87;36.90
60019;BME280;45870;42.528;26.740;2023-02-11T05:58:06;101545.72;;;3.12;35.61
60019;BME280;45870;42.528;26.740;2023-02-11T06:00:33;101545.28;;;3.26;35.11
60019;BME280;45870;42.528;26.740;2023-02-11T06:02:59;101549.72;;;3.64;34.76
60019;BME280;45870;42.528;26.740;2023-02-11T06:05:25;101551.00;;;4.96;33.67
60019;BME280;45870;42.528;26.740;2023-02-11T06:07:51;101544.91;;;4.41;33.50
60019;BME280;45870;42.528;26.740;2023-02-11T06:10:17;101540.13;;;4.63;34.25
60019;BME280;45870;42.528;26.740;2023-02-11T06:12:43;101539.44;;;6.92;32.53
60019;BME280;45870;42.528;26.740;2023-02-11T06:15:09;101537.25;;;7.69;31.01
60019;BME280;45870;42.528;26.740;2023-02-11T06:17:35;101534.06;;;7.73;29.58
60019;BME280;45870;42.528;26.740;2023-02-11T06:20:03;101529.59;;;8.51;29.05
60019;BME280;45870;42.528;26.740;2023-02-11T06:22:30;101502.03;;;8.02;29.64
60019;BME280;45870;42.528;26.740;2023-02-11T06:24:55;101534.91;;;8.68;29.47
60019;BME280;45870;42.528;26.740;2023-02-11T06:27:21;101490.81;;;6.29;32.08
60019;BME280;45870;42.528;26.740;2023-02-11T06:29:47;101538.50;;;2.65;38.05
60019;BME280;45870;42.528;26.740;2023-02-11T06:32:13;101544.59;;;1.66;38.44
60019;BME280;45870;42.528;26.740;2023-02-11T06:34:39;101500.31;;;1.35;39.42
60019;BME280;45870;42.528;26.740;2023-02-11T06:37:05;101546.06;;;0.00;42.31
60019;BME280;45870;42.528;26.740;2023-02-11T06:39:31;101548.47;;;2.63;39.03
60019;BME280;45870;42.528;26.740;2023-02-11T06:41:57;101553.50;;;0.28;41.69
60019;BME280;45870;42.528;26.740;2023-02-11T06:44:22;101419.00;;;-0.05;40.73
60019;BME280;45870;42.528;26.740;2023-02-11T06:46:48;101552.69;;;2.65;38.72
60019;BME280;45870;42.528;26.740;2023-02-11T06:49:14;101551.75;;;2.26;39.25
60019;BME280;45870;42.528;26.740;2023-02-11T06:51:39;101542.47;;;1.60;39.29
60019;BME280;45870;42.528;26.740;2023-02-11T06:54:06;101554.91;;;3.66;36.99
60019;BME280;45870;42.528;26.740;2023-02-11T06:56:32;101533.31;;;3.40;36.19
60019;BME280;45870;42.528;26.740;2023-02-11T06:58:58;101557.44;;;5.03;34.37
60019;BME280;45870;42.528;26.740;2023-02-11T07:01:25;101561.59;;;5.59;33.02
60019;BME280;45870;42.528;26.740;2023-02-11T07:03:51;101553.41;;;6.46;32.12
60019;BME280;45870;42.528;26.740;2023-02-11T07:06:20;101499.50;;;5.64;32.89
60019;BME280;45870;42.528;26.740;2023-02-11T07:08:48;101549.84;;;6.37;33.20
60019;BME280;45870;42.528;26.740;2023-02-11T07:11:19;101566.19;;;6.26;32.74
60019;BME280;45870;42.528;26.740;2023-02-11T07:13:46;101572.81;;;5.80;34.61
60019;BME280;45870;42.528;26.740;2023-02-11T07:16:14;101565.31;;;6.43;33.69
60019;BME280;45870;42.528;26.740;2023-02-11T07:18:40;101559.81;;;5.68;33.92
60019;BME280;45870;42.528;26.740;2023-02-11T07:21:07;101561.16;;;5.28;35.64
60019;BME280;45870;42.528;26.740;2023-02-11T07:23:34;101561.25;;;4.83;36.97
60019;BME280;45870;42.528;26.740;2023-02-11T07:26:03;101553.97;;;6.24;34.10
60019;BME280;45870;42.528;26.740;2023-02-11T07:28:29;101552.72;;;4.52;36.69
60019;BME280;45870;42.528;26.740;2023-02-11T07:30:54;101533.38;;;5.47;36.07
60019;BME280;45870;42.528;26.740;2023-02-11T07:33:20;101542.19;;;5.39;34.75
60019;BME280;45870;42.528;26.740;2023-02-11T07:35:45;101548.72;;;5.01;36.35
60019;BME280;45870;42.528;26.740;2023-02-11T07:38:11;101552.53;;;5.34;36.64
60019;BME280;45870;42.528;26.740;2023-02-11T07:40:37;101543.50;;;8.32;31.83
60019;BME280;45870;42.528;26.740;2023-02-11T07:43:02;101537.59;;;8.68;30.64
60019;BME280;45870;42.528;26.740;2023-02-11T07:45:28;101545.41;;;8.08;31.04
60019;BME280;45870;42.528;26.740;2023-02-11T07:47:55;101515.53;;;7.94;31.70
60019;BME280;45870;42.528;26.740;2023-02-11T07:50:21;101542.31;;;6.41;34.08
60019;BME280;45870;42.528;26.740;2023-02-11T07:52:46;101545.25;;;5.70;34.69
60019;BME280;45870;42.528;26.740;2023-02-11T07:55:12;101543.16;;;5.56;36.81
60019;BME280;45870;42.528;26.740;2023-02-11T07:57:38;101533.56;;;7.05;33.92
60019;BME280;45870;42.528;26.740;2023-02-11T08:00:04;101523.19;;;6.44;35.41
60019;BME280;45870;42.528;26.740;2023-02-11T08:02:30;101519.94;;;6.24;34.59
60019;BME280;45870;42.528;26.740;2023-02-11T08:04:55;101537.28;;;5.35;37.71
60019;BME280;45870;42.528;26.740;2023-02-11T08:07:21;101523.22;;;5.76;36.80
60019;BME280;45870;42.528;26.740;2023-02-11T08:09:47;101421.50;;;5.33;36.04
60019;BME280;45870;42.528;26.740;2023-02-11T08:12:12;101529.84;;;6.24;36.05
60019;BME280;45870;42.528;26.740;2023-02-11T08:14:39;101526.91;;;6.09;36.22
60019;BME280;45870;42.528;26.740;2023-02-11T08:17:04;101538.84;;;5.37;37.87
60019;BME280;45870;42.528;26.740;2023-02-11T08:19:30;101519.09;;;3.95;40.40
60019;BME280;45870;42.528;26.740;2023-02-11T08:21:56;101531.06;;;4.01;40.31
60019;BME280;45870;42.528;26.740;2023-02-11T08:24:22;101530.03;;;5.45;38.60
60019;BME280;45870;42.528;26.740;2023-02-11T08:26:48;101528.91;;;7.31;34.90
60019;BME280;45870;42.528;26.740;2023-02-11T08:29:15;101521.03;;;6.47;34.54
60019;BME280;45870;42.528;26.740;2023-02-11T08:31:43;101523.78;;;4.83;36.61
60019;BME280;45870;42.528;26.740;2023-02-11T08:34:12;101464.34;;;4.09;37.36
60019;BME280;45870;42.528;26.740;2023-02-11T08:36:43;101534.03;;;4.88;36.16
60019;BME280;45870;42.528;26.740;2023-02-11T08:39:18;101483.41;;;5.12;36.14
60019;BME280;45870;42.528;26.740;2023-02-11T08:41:52;101458.59;;;5.53;34.86
60019;BME280;45870;42.528;26.740;2023-02-11T08:44:19;101513.81;;;5.98;35.05
60019;BME280;45870;42.528;26.740;2023-02-11T08:46:46;101510.91;;;6.91;34.38
60019;BME280;45870;42.528;26.740;2023-02-11T08:49:13;101507.72;;;6.88;35.12
60019;BME280;45870;42.528;26.740;2023-02-11T08:51:38;101509.22;;;6.82;32.77
60019;BME280;45870;42.528;26.740;2023-02-11T08:54:04;101437.22;;;5.62;34.53
60019;BME280;45870;42.528;26.740;2023-02-11T08:56:34;101502.03;;;6.25;34.74
60019;BME280;45870;42.528;26.740;2023-02-11T08:58:59;101498.84;;;7.12;33.57
60019;BME280;45870;42.528;26.740;2023-02-11T09:01:29;101493.69;;;8.67;31.12
60019;BME280;45870;42.528;26.740;2023-02-11T09:03:56;101503.34;;;7.51;33.46
60019;BME280;45870;42.528;26.740;2023-02-11T09:06:24;101493.31;;;7.05;33.51
60019;BME280;45870;42.528;26.740;2023-02-11T09:08:51;101481.34;;;8.11;31.91
60019;BME280;45870;42.528;26.740;2023-02-11T09:11:20;101484.97;;;8.26;32.19
60019;BME280;45870;42.528;26.740;2023-02-11T09:13:46;101466.09;;;8.42;30.67
60019;BME280;45870;42.528;26.740;2023-02-11T09:16:21;101453.47;;;8.04;31.66
60019;BME280;45870;42.528;26.740;2023-02-11T09:18:47;101477.59;;;9.27;29.25
60019;BME280;45870;42.528;26.740;2023-02-11T09:21:14;101448.28;;;8.64;30.53
60019;BME280;45870;42.528;26.740;2023-02-11T09:23:41;101450.31;;;8.85;30.78
60019;BME280;45870;42.528;26.740;2023-02-11T09:26:13;101453.19;;;9.58;28.53
60019;BME280;45870;42.528;26.740;2023-02-11T09:28:40;101452.53;;;9.04;29.46
60019;BME280;45870;42.528;26.740;2023-02-11T09:31:07;101452.22;;;9.22;29.35
60019;BME280;45870;42.528;26.740;2023-02-11T09:33:34;101440.44;;;8.77;30.20
60019;BME280;45870;42.528;26.740;2023-02-11T09:36:01;101429.59;;;9.08;28.34
60019;BME280;45870;42.528;26.740;2023-02-11T09:38:27;101358.13;;;9.49;27.41
60019;BME280;45870;42.528;26.740;2023-02-11T09:40:53;101429.47;;;9.01;28.03
60019;BME280;45870;42.528;26.740;2023-02-11T09:43:21;101351.19;;;8.51;27.30
60019;BME280;45870;42.528;26.740;2023-02-11T09:45:49;101420.75;;;9.81;27.18
60019;BME280;45870;42.528;26.740;2023-02-11T09:48:17;101422.59;;;8.62;30.29
60019;BME280;45870;42.528;26.740;2023-02-11T09:50:56;101410.47;;;9.03;28.29
60019;BME280;45870;42.528;26.740;2023-02-11T09:53:28;101400.38;;;9.34;28.65
60019;BME280;45870;42.528;26.740;2023-02-11T09:55:56;101374.72;;;8.72;27.55
60019;BME280;45870;42.528;26.740;2023-02-11T09:58:29;101398.91;;;9.32;28.11
60019;BME280;45870;42.528;26.740;2023-02-11T10:01:34;101393.69;;;10.61;25.80
60019;BME280;45870;42.528;26.740;2023-02-11T10:04:11;101394.88;;;9.86;25.26
60019;BME280;45870;42.528;26.740;2023-02-11T10:06:48;101392.09;;;9.94;26.53
60019;BME280;45870;42.528;26.740;2023-02-11T10:09:46;101380.72;;;8.06;27.07
60019;BME280;45870;42.528;26.740;2023-02-11T10:12:35;101373.72;;;9.25;27.66
60019;BME280;45870;42.528;26.740;2023-02-11T10:18:33;101372.06;;;9.01;26.30
60019;BME280;45870;42.528;26.740;2023-02-11T10:24:03;101361.25;;;11.72;22.17
60019;BME280;45870;42.528;26.740;2023-02-11T10:26:31;101357.81;;;11.50;23.68
60019;BME280;45870;42.528;26.740;2023-02-11T10:29:00;101354.28;;;11.90;22.63
60019;BME280;45870;42.528;26.740;2023-02-11T10:31:34;101344.97;;;12.06;22.63
60019;BME280;45870;42.528;26.740;2023-02-11T10:34:08;101333.50;;;9.88;25.44
60019;BME280;45870;42.528;26.740;2023-02-11T10:36:38;101321.16;;;10.79;24.21
60019;BME280;45870;42.528;26.740;2023-02-11T10:39:15;101323.44;;;11.44;24.41
60019;BME280;45870;42.528;26.740;2023-02-11T10:41:50;101305.69;;;9.52;25.37
60019;BME280;45870;42.528;26.740;2023-02-11T10:44:28;101306.41;;;10.81;24.44
60019;BME280;45870;42.528;26.740;2023-02-11T10:46:56;101313.78;;;12.23;22.51
60019;BME280;45870;42.528;26.740;2023-02-11T10:49:34;101311.69;;;11.24;23.52
60019;BME280;45870;42.528;26.740;2023-02-11T10:55:05;101305.22;;;12.07;23.02
60019;BME280;45870;42.528;26.740;2023-02-11T10:57:34;101300.03;;;10.89;24.42
60019;BME280;45870;42.528;26.740;2023-02-11T11:00:07;101257.97;;;9.67;25.15
60019;BME280;45870;42.528;26.740;2023-02-11T11:02:45;101279.53;;;9.67;24.84
60019;BME280;45870;42.528;26.740;2023-02-11T11:05:21;101279.25;;;10.62;23.90
60019;BME280;45870;42.528;26.740;2023-02-11T11:08:04;101272.09;;;10.47;24.02
60019;BME280;45870;42.528;26.740;2023-02-11T11:10:38;101270.94;;;10.91;24.17
60019;BME280;45870;42.528;26.740;2023-02-11T11:13:25;101259.38;;;11.44;22.48
60019;BME280;45870;42.528;26.740;2023-02-11T11:16:14;101275.97;;;10.45;23.57
60019;BME280;45870;42.528;26.740;2023-02-11T11:18:48;101274.94;;;11.77;22.26
60019;BME280;45870;42.528;26.740;2023-02-11T11:21:23;101198.97;;;11.11;22.57
60019;BME280;45870;42.528;26.740;2023-02-11T11:23:58;101227.34;;;10.66;24.11
60019;BME280;45870;42.528;26.740;2023-02-11T11:26:28;101262.19;;;11.64;22.51
60019;BME280;45870;42.528;26.740;2023-02-11T11:29:08;101186.06;;;10.72;23.01
60019;BME280;45870;42.528;26.740;2023-02-11T11:31:52;101173.13;;;10.61;22.03
60019;BME280;45870;42.528;26.740;2023-02-11T11:34:39;101247.94;;;10.18;23.87
60019;BME280;45870;42.528;26.740;2023-02-11T11:39:38;101181.72;;;10.78;22.86
60019;BME280;45870;42.528;26.740;2023-02-11T11:42:25;101232.91;;;10.30;23.49
60019;BME280;45870;42.528;26.740;2023-02-11T11:44:59;101223.31;;;11.72;22.53
60019;BME280;45870;42.528;26.740;2023-02-11T11:50:25;101212.09;;;11.75;21.93
60019;BME280;45870;42.528;26.740;2023-02-11T11:55:35;101211.38;;;11.06;21.30
60019;BME280;45870;42.528;26.740;2023-02-11T11:58:04;101154.50;;;11.20;21.50
60019;BME280;45870;42.528;26.740;2023-02-11T12:00:41;101152.59;;;10.73;22.07
60019;BME280;45870;42.528;26.740;2023-02-11T12:03:26;101170.09;;;11.85;21.61
60019;BME280;45870;42.528;26.740;2023-02-11T12:06:25;101174.41;;;11.13;22.22
60019;BME280;45870;42.528;26.740;2023-02-11T12:22:42;101148.78;;;11.69;22.72
60019;BME280;45870;42.528;26.740;2023-02-11T12:36:16;101148.66;;;12.23;20.79
60019;BME280;45870;42.528;26.740;2023-02-11T12:50:31;101132.19;;;12.31;21.85
60019;BME280;45870;42.528;26.740;2023-02-11T12:56:07;101119.97;;;11.16;22.09
60019;BME280;45870;42.528;26.740;2023-02-11T12:58:37;101124.81;;;12.65;20.70
60019;BME280;45870;42.528;26.740;2023-02-11T13:01:08;101124.78;;;14.41;18.43
60019;BME280;45870;42.528;26.740;2023-02-11T13:06:45;101089.91;;;11.51;21.97
60019;BME280;45870;42.528;26.740;2023-02-11T13:09:18;101117.34;;;12.53;20.97
60019;BME280;45870;42.528;26.740;2023-02-11T13:11:52;101118.06;;;15.46;18.20
60019;BME280;45870;42.528;26.740;2023-02-11T13:16:49;101112.34;;;13.52;19.77
60019;BME280;45870;42.528;26.740;2023-02-11T13:24:42;101108.00;;;14.01;18.98
60019;BME280;45870;42.528;26.740;2023-02-11T13:30:21;101104.00;;;13.23;20.08
60019;BME280;45870;42.528;26.740;2023-02-11T13:35:35;101090.63;;;13.21;19.76
60019;BME280;45870;42.528;26.740;2023-02-11T13:38:04;101087.53;;;13.49;19.02
60019;BME280;45870;42.528;26.740;2023-02-11T13:40:34;101094.50;;;14.92;17.25
60019;BME280;45870;42.528;26.740;2023-02-11T13:43:03;101094.31;;;14.39;17.69
60019;BME280;45870;42.528;26.740;2023-02-11T13:45:43;101088.81;;;13.15;19.07
60019;BME280;45870;42.528;26.740;2023-02-11T13:48:34;101087.25;;;11.78;19.87
60019;BME280;45870;42.528;26.740;2023-02-11T13:51:06;101038.84;;;12.47;18.69
60019;BME280;45870;42.528;26.740;2023-02-11T13:53:56;101078.81;;;16.07;16.33
60019;BME280;45870;42.528;26.740;2023-02-11T13:56:23;101071.06;;;15.69;16.09
60019;BME280;45870;42.528;26.740;2023-02-11T13:58:52;101014.72;;;16.27;16.02
60019;BME280;45870;42.528;26.740;2023-02-11T14:04:34;101065.84;;;15.26;17.28
60019;BME280;45870;42.528;26.740;2023-02-11T14:07:31;101024.94;;;17.00;14.92
60019;BME280;45870;42.528;26.740;2023-02-11T14:15:47;101023.31;;;16.99;15.20
60019;BME280;45870;42.528;26.740;2023-02-11T14:23:53;101038.09;;;17.03;15.15
60019;BME280;45870;42.528;26.740;2023-02-11T14:26:55;101044.84;;;19.37;13.51
60019;BME280;45870;42.528;26.740;2023-02-11T14:34:50;101042.38;;;19.09;13.51
60019;BME280;45870;42.528;26.740;2023-02-11T14:37:34;101045.41;;;18.64;13.37
60019;BME280;45870;42.528;26.740;2023-02-11T14:40:19;101040.88;;;17.81;14.18
60019;BME280;45870;42.528;26.740;2023-02-11T14:42:50;101044.66;;;19.17;13.66
60019;BME280;45870;42.528;26.740;2023-02-11T14:45:22;101046.41;;;18.80;14.02
60019;BME280;45870;42.528;26.740;2023-02-11T14:53:01;101037.25;;;20.08;12.94
60019;BME280;45870;42.528;26.740;2023-02-11T14:55:35;101031.34;;;20.93;12.46
60019;BME280;45870;42.528;26.740;2023-02-11T14:58:21;101037.72;;;20.37;12.59
60019;BME280;45870;42.528;26.740;2023-02-11T15:03:36;101027.84;;;18.05;14.59
60019;BME280;45870;42.528;26.740;2023-02-11T15:06:22;101028.00;;;18.75;14.18
60019;BME280;45870;42.528;26.740;2023-02-11T15:11:45;101023.16;;;19.04;13.44
60019;BME280;45870;42.528;26.740;2023-02-11T15:14:20;101020.91;;;18.14;14.29